createdAt,value
2018-01-01T00:00:17.280Z,12.02
2018-01-01T00:00:57.836Z,12.02
2018-01-01T00:01:38.407Z,12.02
2018-01-01T00:02:18.974Z,12
2018-01-01T00:02:59.542Z,12.04
2018-01-01T00:03:40.108Z,12
2018-01-01T00:04:20.673Z,11.94
2018-01-01T00:05:01.241Z,11.95
2018-01-01T00:05:41.804Z,11.9
2018-01-01T00:06:22.383Z,11.88
2018-01-01T00:07:02.995Z,11.91
2018-01-01T00:07:43.514Z,11.95
2018-01-01T00:08:24.066Z,11.87
2018-01-01T00:09:04.630Z,11.91
2018-01-01T00:09:45.200Z,11.95
2018-01-01T00:10:25.757Z,11.95
2018-01-01T00:11:06.319Z,11.95
2018-01-01T00:11:46.886Z,11.95
2018-01-01T00:12:27.448Z,11.91
2018-01-01T00:13:08.039Z,11.94
2018-01-01T00:13:48.601Z,11.97
2018-01-01T00:14:29.172Z,11.94
2018-01-01T00:15:09.736Z,11.99
2018-01-01T00:15:50.300Z,11.94
2018-01-01T00:16:30.865Z,11.94
2018-01-01T00:17:11.449Z,11.91
2018-01-01T00:17:52.020Z,11.95
2018-01-01T00:18:32.579Z,11.91
2018-01-01T00:19:13.146Z,11.94
2018-01-01T00:19:53.736Z,11.99
2018-01-01T00:20:34.299Z,11.91
2018-01-01T00:21:14.860Z,11.91
2018-01-01T00:21:55.424Z,11.99
2018-01-01T00:22:35.995Z,11.95
2018-01-01T00:23:16.573Z,11.91
2018-01-01T00:23:57.119Z,11.95
2018-01-01T00:24:37.696Z,11.99
2018-01-01T00:25:18.264Z,11.97
2018-01-01T00:25:58.836Z,11.94
2018-01-01T00:26:39.397Z,11.94
2018-01-01T00:27:19.960Z,11.88
2018-01-01T00:28:00.516Z,11.94
2018-01-01T00:28:41.104Z,12.02
2018-01-01T00:29:21.664Z,11.95
2018-01-01T00:30:02.233Z,11.94
2018-01-01T00:30:42.808Z,11.97
2018-01-01T00:31:23.381Z,11.86
2018-01-01T00:32:03.940Z,11.94
2018-01-01T00:32:44.512Z,11.83
2018-01-01T00:33:25.102Z,11.88
2018-01-01T00:34:05.678Z,11.87
2018-01-01T00:34:46.249Z,11.97
2018-01-01T00:35:26.820Z,11.91
2018-01-01T00:36:07.388Z,11.97
2018-01-01T00:36:47.950Z,11.95
2018-01-01T00:37:28.513Z,11.94
2018-01-01T00:38:09.084Z,11.9
2018-01-01T00:38:49.703Z,12
2018-01-01T00:39:30.282Z,11.9
2018-01-01T00:40:10.845Z,11.94
2018-01-01T00:40:51.439Z,11.86
2018-01-01T00:41:31.974Z,11.83
2018-01-01T00:42:12.550Z,11.9
2018-01-01T00:42:53.118Z,11.88
2018-01-01T00:43:33.728Z,11.86
2018-01-01T00:44:14.286Z,11.95
2018-01-01T00:44:54.848Z,11.86
2018-01-01T00:45:35.414Z,11.88
2018-01-01T00:46:15.976Z,11.88
2018-01-01T00:46:56.524Z,11.91
2018-01-01T00:47:37.083Z,11.81
2018-01-01T00:48:17.643Z,11.97
2018-01-01T00:48:58.206Z,11.95
2018-01-01T00:49:38.773Z,11.9
2018-01-01T00:50:19.333Z,11.87
2018-01-01T00:50:59.901Z,11.84
2018-01-01T00:51:40.462Z,11.8
2018-01-01T00:52:21.027Z,11.81
2018-01-01T00:53:01.590Z,11.9
2018-01-01T00:53:42.150Z,11.94
2018-01-01T00:54:22.718Z,11.9
2018-01-01T00:55:03.294Z,12
2018-01-01T00:55:44.367Z,12
2018-01-01T00:56:25.117Z,11.91
2018-01-01T00:57:05.678Z,11.9
2018-01-01T00:57:46.357Z,11.94
2018-01-01T00:58:27.493Z,11.88
2018-01-01T00:59:08.108Z,11.81
2018-01-01T00:59:49.205Z,11.86
2018-01-01T01:00:30.813Z,11.87
2018-01-01T01:01:11.962Z,11.9
2018-01-01T01:01:54.776Z,11.94
2018-01-01T01:02:35.643Z,11.88
2018-01-01T01:03:16.582Z,11.8
2018-01-01T01:03:57.477Z,11.84
2018-01-01T01:04:38.207Z,11.83
2018-01-01T01:05:19.155Z,11.83
2018-01-01T01:06:00.139Z,11.81
2018-01-01T01:06:40.846Z,11.84
2018-01-01T01:07:21.414Z,11.88
2018-01-01T01:08:01.991Z,11.86
2018-01-01T01:08:42.563Z,11.83
2018-01-01T01:09:23.157Z,11.81
2018-01-01T01:10:03.745Z,11.83
2018-01-01T01:10:44.310Z,11.81
2018-01-01T01:11:24.892Z,11.81
2018-01-01T01:12:05.446Z,11.8
2018-01-01T01:12:46.010Z,11.8
2018-01-01T01:13:26.566Z,11.84
2018-01-01T01:14:07.135Z,11.78
2018-01-01T01:14:47.721Z,11.78
2018-01-01T01:15:28.280Z,11.78
2018-01-01T01:16:08.843Z,11.84
2018-01-01T01:16:49.399Z,11.7
2018-01-01T01:17:29.965Z,11.8
2018-01-01T01:18:10.531Z,11.75
2018-01-01T01:18:51.116Z,11.7
2018-01-01T01:19:31.693Z,11.69
2018-01-01T01:20:12.255Z,11.69
2018-01-01T01:20:52.840Z,11.75
2018-01-01T01:21:33.400Z,11.69
2018-01-01T01:22:13.970Z,11.72
2018-01-01T01:22:54.542Z,11.66
2018-01-01T01:23:35.104Z,11.72
2018-01-01T01:24:15.668Z,11.66
2018-01-01T01:24:56.243Z,11.69
2018-01-01T01:25:36.805Z,11.68
2018-01-01T01:26:17.375Z,11.7
2018-01-01T01:26:57.928Z,11.73
2018-01-01T01:27:38.489Z,11.65
2018-01-01T01:28:19.058Z,11.72
2018-01-01T01:28:59.633Z,11.75
2018-01-01T01:29:40.218Z,11.63
2018-01-01T01:30:20.797Z,11.75
2018-01-01T01:31:01.367Z,11.6
2018-01-01T01:31:41.924Z,11.65
2018-01-01T01:32:22.486Z,11.63
2018-01-01T01:33:03.061Z,11.6
2018-01-01T01:33:43.636Z,11.62
2018-01-01T01:34:24.208Z,11.6
2018-01-01T01:35:04.782Z,11.57
2018-01-01T01:35:45.346Z,11.59
2018-01-01T01:36:25.915Z,11.66
2018-01-01T01:37:06.469Z,11.59
2018-01-01T01:37:47.038Z,11.55
2018-01-01T01:38:27.607Z,11.57
2018-01-01T01:39:08.178Z,11.6
2018-01-01T01:39:48.743Z,11.59
2018-01-01T01:40:29.316Z,11.52
2018-01-01T01:41:09.878Z,11.52
2018-01-01T01:41:50.456Z,11.48
2018-01-01T01:42:31.009Z,11.51
2018-01-01T01:43:11.566Z,11.54
2018-01-01T01:43:52.120Z,11.47
2018-01-01T01:44:32.709Z,11.51
2018-01-01T01:45:13.296Z,11.51
2018-01-01T01:45:53.852Z,11.47
2018-01-01T01:46:34.426Z,11.48
2018-01-01T01:47:14.989Z,11.48
2018-01-01T01:47:55.561Z,11.47
2018-01-01T01:48:36.124Z,11.47
2018-01-01T01:49:16.701Z,11.47
2018-01-01T01:49:57.270Z,11.44
2018-01-01T01:50:37.847Z,11.51
2018-01-01T01:51:18.412Z,11.48
2018-01-01T01:51:58.972Z,11.51
2018-01-01T01:52:39.524Z,11.48
2018-01-01T01:53:20.095Z,11.47
2018-01-01T01:54:00.666Z,11.47
2018-01-01T01:54:41.222Z,11.51
2018-01-01T01:55:21.785Z,11.51
2018-01-01T01:56:02.354Z,11.54
2018-01-01T01:56:42.922Z,11.48
2018-01-01T01:57:23.508Z,11.54
2018-01-01T01:58:04.098Z,11.54
2018-01-01T01:58:44.644Z,11.48
2018-01-01T01:59:25.208Z,11.54
2018-01-01T02:00:05.780Z,11.51
2018-01-01T02:00:46.336Z,11.51
2018-01-01T02:01:26.894Z,11.52
2018-01-01T02:02:07.458Z,11.47
2018-01-01T02:02:48.033Z,11.52
2018-01-01T02:03:28.590Z,11.5
2018-01-01T02:04:09.150Z,11.5
2018-01-01T02:04:49.724Z,11.48
2018-01-01T02:05:30.305Z,11.47
2018-01-01T02:06:10.870Z,11.47
2018-01-01T02:06:51.436Z,11.5
2018-01-01T02:07:32.050Z,11.47
2018-01-01T02:08:12.613Z,11.48
2018-01-01T02:08:53.190Z,11.5
2018-01-01T02:09:33.752Z,11.43
2018-01-01T02:10:14.316Z,11.48
2018-01-01T02:10:54.889Z,11.48
2018-01-01T02:11:35.455Z,11.44
2018-01-01T02:12:16.020Z,11.47
2018-01-01T02:12:56.578Z,11.44
2018-01-01T02:13:37.137Z,11.48
2018-01-01T02:14:17.710Z,11.52
2018-01-01T02:14:58.276Z,11.44
2018-01-01T02:15:38.853Z,11.48
2018-01-01T02:16:19.471Z,11.48
2018-01-01T02:17:00.052Z,11.47
2018-01-01T02:17:40.612Z,11.52
2018-01-01T02:18:21.194Z,11.48
2018-01-01T02:19:01.785Z,11.51
2018-01-01T02:19:42.359Z,11.51
2018-01-01T02:20:22.920Z,11.51
2018-01-01T02:21:03.480Z,11.48
2018-01-01T02:21:44.051Z,11.55
2018-01-01T02:22:24.625Z,11.5
2018-01-01T02:23:05.178Z,11.54
2018-01-01T02:23:45.739Z,11.54
2018-01-01T02:24:26.295Z,11.57
2018-01-01T02:25:06.895Z,11.57
2018-01-01T02:25:47.475Z,11.44
2018-01-01T02:26:28.045Z,11.5
2018-01-01T02:27:08.609Z,11.54
2018-01-01T02:27:49.179Z,11.57
2018-01-01T02:28:29.758Z,11.54
2018-01-01T02:29:10.313Z,11.54
2018-01-01T02:29:50.879Z,11.47
2018-01-01T02:30:31.447Z,11.51
2018-01-01T02:31:12.023Z,11.5
2018-01-01T02:31:52.584Z,11.51
2018-01-01T02:32:33.140Z,11.51
2018-01-01T02:33:13.706Z,11.48
2018-01-01T02:33:54.291Z,11.52
2018-01-01T02:34:34.850Z,11.5
2018-01-01T02:35:15.408Z,11.48
2018-01-01T02:35:55.973Z,11.51
2018-01-01T02:36:36.531Z,11.5
2018-01-01T02:37:17.090Z,11.47
2018-01-01T02:37:57.668Z,11.47
2018-01-01T02:38:38.253Z,11.51
2018-01-01T02:39:18.811Z,11.54
2018-01-01T02:39:59.381Z,11.48
2018-01-01T02:40:39.947Z,11.51
2018-01-01T02:41:20.529Z,11.52
2018-01-01T02:42:01.103Z,11.51
2018-01-01T02:42:41.663Z,11.52
2018-01-01T02:43:22.221Z,11.51
2018-01-01T02:44:02.788Z,11.51
2018-01-01T02:44:43.348Z,11.51
2018-01-01T02:45:23.911Z,11.48
2018-01-01T02:46:04.473Z,11.52
2018-01-01T02:46:45.042Z,11.48
2018-01-01T02:47:25.616Z,11.5
2018-01-01T02:48:06.192Z,11.47
2018-01-01T02:48:46.747Z,11.48
2018-01-01T02:49:27.311Z,11.45
2018-01-01T02:50:07.884Z,11.44
2018-01-01T02:50:48.451Z,11.44
2018-01-01T02:51:29.005Z,11.4
2018-01-01T02:52:09.588Z,11.5
2018-01-01T02:52:50.149Z,11.35
2018-01-01T02:53:30.720Z,11.33
2018-01-01T02:54:11.288Z,11.48
2018-01-01T02:54:51.869Z,11.51
2018-01-01T02:55:32.429Z,11.48
2018-01-01T02:56:12.994Z,11.36
2018-01-01T02:56:53.550Z,11.48
2018-01-01T02:57:34.130Z,11.47
2018-01-01T02:58:14.689Z,11.44
2018-01-01T02:58:55.245Z,11.51
2018-01-01T02:59:35.801Z,11.44
2018-01-01T03:00:16.357Z,11.51
2018-01-01T03:00:56.913Z,11.48
2018-01-01T03:01:37.480Z,11.52
2018-01-01T03:02:18.038Z,11.35
2018-01-01T03:02:58.592Z,11.43
2018-01-01T03:03:39.168Z,11.45
2018-01-01T03:04:19.741Z,11.33
2018-01-01T03:05:00.308Z,11.45
2018-01-01T03:05:40.965Z,11.51
2018-01-01T03:06:21.521Z,11.47
2018-01-01T03:07:02.098Z,11.45
2018-01-01T03:07:42.677Z,11.47
2018-01-01T03:08:23.248Z,11.48
2018-01-01T03:09:03.825Z,11.51
2018-01-01T03:09:44.401Z,11.35
2018-01-01T03:10:24.958Z,11.44
2018-01-01T03:11:05.532Z,11.45
2018-01-01T03:11:46.089Z,11.48
2018-01-01T03:12:26.655Z,11.43
2018-01-01T03:13:07.558Z,11.45
2018-01-01T03:13:48.120Z,11.52
2018-01-01T03:14:28.702Z,11.52
2018-01-01T03:15:09.267Z,11.35
2018-01-01T03:15:49.834Z,11.43
2018-01-01T03:16:30.399Z,11.52
2018-01-01T03:17:10.962Z,11.51
2018-01-01T03:17:51.522Z,11.51
2018-01-01T03:18:32.092Z,11.48
2018-01-01T03:19:12.662Z,11.51
2018-01-01T03:19:53.229Z,11.48
2018-01-01T03:20:33.799Z,11.36
2018-01-01T03:21:14.370Z,11.47
2018-01-01T03:21:54.948Z,11.51
2018-01-01T03:22:35.522Z,11.44
2018-01-01T03:23:16.089Z,11.33
2018-01-01T03:23:56.661Z,11.51
2018-01-01T03:24:37.221Z,11.33
2018-01-01T03:25:17.781Z,11.33
2018-01-01T03:25:58.377Z,11.43
2018-01-01T03:26:38.959Z,11.45
2018-01-01T03:27:19.531Z,11.36
2018-01-01T03:28:00.107Z,11.43
2018-01-01T03:28:40.687Z,11.44
2018-01-01T03:29:21.253Z,11.36
2018-01-01T03:30:01.886Z,11.37
2018-01-01T03:30:42.448Z,11.35
2018-01-01T03:31:23.011Z,11.41
2018-01-01T03:32:03.575Z,11.43
2018-01-01T03:32:44.139Z,11.41
2018-01-01T03:33:24.703Z,11.4
2018-01-01T03:34:05.269Z,11.4
2018-01-01T03:34:45.847Z,11.41
2018-01-01T03:35:26.417Z,11.41
2018-01-01T03:36:06.992Z,11.37
2018-01-01T03:36:47.592Z,11.41
2018-01-01T03:37:28.253Z,11.41
2018-01-01T03:38:08.895Z,11.37
2018-01-01T03:38:49.452Z,11.4
2018-01-01T03:39:30.006Z,11.37
2018-01-01T03:40:10.765Z,11.37
2018-01-01T03:40:51.417Z,11.35
2018-01-01T03:41:31.988Z,11.36
2018-01-01T03:42:12.550Z,11.3
2018-01-01T03:42:53.120Z,11.3
2018-01-01T03:43:33.705Z,11.26
2018-01-01T03:44:14.331Z,11.33
2018-01-01T03:44:54.913Z,11.26
2018-01-01T03:45:35.483Z,11.27
2018-01-01T03:46:16.055Z,11.18
2018-01-01T03:46:56.669Z,11.22
2018-01-01T03:47:37.222Z,11.19
2018-01-01T03:48:17.825Z,11.29
2018-01-01T03:48:58.453Z,11.23
2018-01-01T03:49:39.026Z,11.23
2018-01-01T03:50:19.594Z,11.27
2018-01-01T03:51:00.167Z,11.23
2018-01-01T03:51:40.748Z,11.23
2018-01-01T03:52:21.301Z,11.22
2018-01-01T03:53:01.915Z,11.23
2018-01-01T03:53:42.466Z,11.14
2018-01-01T03:54:23.041Z,11.1
2018-01-01T03:55:03.631Z,11.08
2018-01-01T03:55:44.197Z,11.22
2018-01-01T03:56:24.775Z,11.11
2018-01-01T03:57:05.348Z,11.17
2018-01-01T03:57:45.947Z,11.18
2018-01-01T03:58:26.517Z,11.08
2018-01-01T03:59:07.102Z,11.17
2018-01-01T03:59:47.664Z,11.1
2018-01-01T04:00:28.274Z,11.07
2018-01-01T04:01:08.862Z,11.1
2018-01-01T04:01:49.429Z,11.08
2018-01-01T04:02:30.000Z,11.08
2018-01-01T04:03:10.567Z,11.08
2018-01-01T04:03:51.171Z,11.11
2018-01-01T04:04:31.719Z,11.05
2018-01-01T04:05:12.291Z,11.05
2018-01-01T04:05:52.854Z,11.02
2018-01-01T04:06:33.426Z,11.08
2018-01-01T04:07:14.043Z,11.02
2018-01-01T04:07:54.621Z,11.05
2018-01-01T04:08:35.187Z,11.05
2018-01-01T04:09:15.815Z,11.07
2018-01-01T04:09:56.366Z,11.08
2018-01-01T04:10:36.934Z,11.07
2018-01-01T04:11:17.494Z,10.97
2018-01-01T04:11:58.064Z,10.93
2018-01-01T04:12:38.638Z,11
2018-01-01T04:13:19.227Z,11.07
2018-01-01T04:13:59.789Z,10.9
2018-01-01T04:14:40.363Z,10.99
2018-01-01T04:15:20.933Z,10.99
2018-01-01T04:16:01.500Z,10.97
2018-01-01T04:16:42.071Z,11.05
2018-01-01T04:17:22.646Z,10.99
2018-01-01T04:18:03.220Z,10.96
2018-01-01T04:18:43.816Z,10.96
2018-01-01T04:19:24.384Z,10.93
2018-01-01T04:20:04.946Z,10.96
2018-01-01T04:20:45.567Z,10.93
2018-01-01T04:21:26.162Z,10.96
2018-01-01T04:22:06.729Z,10.92
2018-01-01T04:22:47.295Z,10.92
2018-01-01T04:23:27.867Z,10.94
2018-01-01T04:24:08.453Z,10.99
2018-01-01T04:24:49.029Z,10.96
2018-01-01T04:25:29.608Z,10.9
2018-01-01T04:26:10.168Z,10.97
2018-01-01T04:26:50.759Z,10.94
2018-01-01T04:27:31.349Z,10.94
2018-01-01T04:28:11.921Z,10.93
2018-01-01T04:28:52.495Z,11
2018-01-01T04:29:33.079Z,10.92
2018-01-01T04:30:13.650Z,10.97
2018-01-01T04:30:54.219Z,10.97
2018-01-01T04:31:34.811Z,10.93
2018-01-01T04:32:15.390Z,10.93
2018-01-01T04:32:55.963Z,11.05
2018-01-01T04:33:36.520Z,10.99
2018-01-01T04:34:17.107Z,11.05
2018-01-01T04:34:57.683Z,10.96
2018-01-01T04:35:38.260Z,10.96
2018-01-01T04:36:18.820Z,10.94
2018-01-01T04:36:59.388Z,10.92
2018-01-01T04:37:39.946Z,11.04
2018-01-01T04:38:20.520Z,10.96
2018-01-01T04:39:01.106Z,10.93
2018-01-01T04:39:41.676Z,10.87
2018-01-01T04:40:22.235Z,10.9
2018-01-01T04:41:02.813Z,10.87
2018-01-01T04:41:43.376Z,10.89
2018-01-01T04:42:23.959Z,10.84
2018-01-01T04:43:04.534Z,10.93
2018-01-01T04:43:45.131Z,10.87
2018-01-01T04:44:25.734Z,10.9
2018-01-01T04:45:06.272Z,10.89
2018-01-01T04:45:46.839Z,10.86
2018-01-01T04:46:27.404Z,10.86
2018-01-01T04:47:07.970Z,10.84
2018-01-01T04:47:48.553Z,10.87
2018-01-01T04:48:29.107Z,10.84
2018-01-01T04:49:09.720Z,10.86
2018-01-01T04:49:50.325Z,10.72
2018-01-01T04:50:30.885Z,10.87
2018-01-01T04:51:11.446Z,10.84
2018-01-01T04:51:52.023Z,10.79
2018-01-01T04:52:32.600Z,10.78
2018-01-01T04:53:13.175Z,10.78
2018-01-01T04:53:53.759Z,10.78
2018-01-01T04:54:34.339Z,10.81
2018-01-01T04:55:14.909Z,10.78
2018-01-01T04:55:55.462Z,10.71
2018-01-01T04:56:36.034Z,10.81
2018-01-01T04:57:16.595Z,10.78
2018-01-01T04:57:57.163Z,10.68
2018-01-01T04:58:37.739Z,10.74
2018-01-01T04:59:18.312Z,10.72
2018-01-01T04:59:58.884Z,10.76
2018-01-01T05:00:39.471Z,10.67
2018-01-01T05:01:20.036Z,10.68
2018-01-01T05:02:00.606Z,10.71
2018-01-01T05:02:41.170Z,10.63
2018-01-01T05:03:21.750Z,10.68
2018-01-01T05:04:02.308Z,10.67
2018-01-01T05:04:42.870Z,10.67
2018-01-01T05:05:23.451Z,10.69
2018-01-01T05:06:04.015Z,10.6
2018-01-01T05:06:44.591Z,10.6
2018-01-01T05:07:25.185Z,10.64
2018-01-01T05:08:05.753Z,10.6
2018-01-01T05:08:46.328Z,10.63
2018-01-01T05:09:26.904Z,10.6
2018-01-01T05:10:07.511Z,10.63
2018-01-01T05:10:48.086Z,10.67
2018-01-01T05:11:28.658Z,10.64
2018-01-01T05:12:09.227Z,10.56
2018-01-01T05:12:49.800Z,10.61
2018-01-01T05:13:30.363Z,10.61
2018-01-01T05:14:10.948Z,10.67
2018-01-01T05:14:51.514Z,10.53
2018-01-01T05:15:32.079Z,10.61
2018-01-01T05:16:12.654Z,10.56
2018-01-01T05:16:53.211Z,10.63
2018-01-01T05:17:33.773Z,10.59
2018-01-01T05:18:14.335Z,10.51
2018-01-01T05:18:54.916Z,10.6
2018-01-01T05:19:35.490Z,10.63
2018-01-01T05:20:16.061Z,10.56
2018-01-01T05:20:56.637Z,10.6
2018-01-01T05:21:37.195Z,10.63
2018-01-01T05:22:17.775Z,10.6
2018-01-01T05:22:58.338Z,10.51
2018-01-01T05:23:38.901Z,10.63
2018-01-01T05:24:19.480Z,10.48
2018-01-01T05:25:00.045Z,10.6
2018-01-01T05:25:40.600Z,10.54
2018-01-01T05:26:21.165Z,10.59
2018-01-01T05:27:01.724Z,10.49
2018-01-01T05:27:42.284Z,10.56
2018-01-01T05:28:22.858Z,10.57
2018-01-01T05:29:03.418Z,10.56
2018-01-01T05:29:54.790Z,10.56
2018-01-01T05:30:37.454Z,10.56
2018-01-01T05:31:18.023Z,10.53
2018-01-01T05:31:58.597Z,10.57
2018-01-01T05:32:39.180Z,10.53
2018-01-01T05:33:19.761Z,10.53
2018-01-01T05:34:00.302Z,10.44
2018-01-01T05:34:40.874Z,10.49
2018-01-01T05:35:21.421Z,10.53
2018-01-01T05:36:02.011Z,10.54
2018-01-01T05:36:42.562Z,10.53
2018-01-01T05:37:23.130Z,10.4
2018-01-01T05:38:03.690Z,10.48
2018-01-01T05:38:44.263Z,10.48
2018-01-01T05:39:24.833Z,10.49
2018-01-01T05:40:05.396Z,10.48
2018-01-01T05:40:45.971Z,10.44
2018-01-01T05:41:26.533Z,10.46
2018-01-01T05:42:07.111Z,10.51
2018-01-01T05:42:47.686Z,10.48
2018-01-01T05:43:28.257Z,10.4
2018-01-01T05:44:08.842Z,10.41
2018-01-01T05:44:49.410Z,10.41
2018-01-01T05:45:29.978Z,10.33
2018-01-01T05:46:10.541Z,10.31
2018-01-01T05:46:51.100Z,10.37
2018-01-01T05:47:31.678Z,10.35
2018-01-01T05:48:12.249Z,10.34
2018-01-01T05:48:52.819Z,10.31
2018-01-01T05:49:33.386Z,10.33
2018-01-01T05:50:13.958Z,10.37
2018-01-01T05:50:54.529Z,10.31
2018-01-01T05:51:35.086Z,10.4
2018-01-01T05:52:15.651Z,10.3
2018-01-01T05:52:56.212Z,10.38
2018-01-01T05:53:36.787Z,10.33
2018-01-01T05:54:17.338Z,10.4
2018-01-01T05:54:57.892Z,10.4
2018-01-01T05:55:38.450Z,10.35
2018-01-01T05:56:19.036Z,10.37
2018-01-01T05:56:59.607Z,10.28
2018-01-01T05:57:40.187Z,10.37
2018-01-01T05:58:20.742Z,10.37
2018-01-01T05:59:01.300Z,10.33
2018-01-01T05:59:41.867Z,10.38
2018-01-01T06:00:22.437Z,10.31
2018-01-01T06:01:02.999Z,10.35
2018-01-01T06:01:43.565Z,10.31
2018-01-01T06:02:24.136Z,10.31
2018-01-01T06:03:04.709Z,10.33
2018-01-01T06:03:45.262Z,10.35
2018-01-01T06:04:25.830Z,10.41
2018-01-01T06:05:06.391Z,10.33
2018-01-01T06:05:46.961Z,10.25
2018-01-01T06:06:27.523Z,10.4
2018-01-01T06:07:08.094Z,10.26
2018-01-01T06:07:48.661Z,10.31
2018-01-01T06:08:29.235Z,10.28
2018-01-01T06:09:09.812Z,10.3
2018-01-01T06:09:50.416Z,10.3
2018-01-01T06:10:30.979Z,10.26
2018-01-01T06:11:11.544Z,10.33
2018-01-01T06:11:52.116Z,10.22
2018-01-01T06:12:32.688Z,10.44
2018-01-01T06:13:13.263Z,10.38
2018-01-01T06:13:53.850Z,10.28
2018-01-01T06:14:34.410Z,10.37
2018-01-01T06:15:14.997Z,10.31
2018-01-01T06:15:55.579Z,10.37
2018-01-01T06:16:36.142Z,10.33
2018-01-01T06:17:16.713Z,10.25
2018-01-01T06:17:57.308Z,10.33
2018-01-01T06:18:37.874Z,10.37
2018-01-01T06:19:18.453Z,10.37
2018-01-01T06:19:59.044Z,10.2
2018-01-01T06:20:39.606Z,10.3
2018-01-01T06:21:20.164Z,10.19
2018-01-01T06:22:00.737Z,10.2
2018-01-01T06:22:41.290Z,10.3
2018-01-01T06:23:21.873Z,10.25
2018-01-01T06:24:02.418Z,10.2
2018-01-01T06:24:42.976Z,10.23
2018-01-01T06:25:23.545Z,10.22
2018-01-01T06:26:04.110Z,10.26
2018-01-01T06:26:44.683Z,10.22
2018-01-01T06:27:25.249Z,10.22
2018-01-01T06:28:05.814Z,10.22
2018-01-01T06:28:46.375Z,10.25
2018-01-01T06:29:26.935Z,10.23
2018-01-01T06:30:07.498Z,10.33
2018-01-01T06:30:48.049Z,10.22
2018-01-01T06:31:28.624Z,10.23
2018-01-01T06:32:09.191Z,10.31
2018-01-01T06:32:49.774Z,10.2
2018-01-01T06:33:30.350Z,10.25
2018-01-01T06:34:10.906Z,10.26
2018-01-01T06:34:51.470Z,10.3
2018-01-01T06:35:32.026Z,10.25
2018-01-01T06:36:12.590Z,10.3
2018-01-01T06:36:53.148Z,10.26
2018-01-01T06:37:33.715Z,10.31
2018-01-01T06:38:14.316Z,10.3
2018-01-01T06:38:54.882Z,10.34
2018-01-01T06:39:35.450Z,10.22
2018-01-01T06:40:16.002Z,10.33
2018-01-01T06:40:56.582Z,10.28
2018-01-01T06:41:37.150Z,10.37
2018-01-01T06:42:17.720Z,10.31
2018-01-01T06:42:58.295Z,10.35
2018-01-01T06:43:38.878Z,10.33
2018-01-01T06:44:19.462Z,10.31
2018-01-01T06:45:00.050Z,10.26
2018-01-01T06:45:40.597Z,10.22
2018-01-01T06:46:21.151Z,10.33
2018-01-01T06:47:01.744Z,10.31
2018-01-01T06:47:42.319Z,10.31
2018-01-01T06:48:22.884Z,10.26
2018-01-01T06:49:03.436Z,10.2
2018-01-01T06:49:43.990Z,10.3
2018-01-01T06:50:24.547Z,10.26
2018-01-01T06:51:05.120Z,10.26
2018-01-01T06:51:45.700Z,10.22
2018-01-01T06:52:26.260Z,10.23
2018-01-01T06:53:06.840Z,10.26
2018-01-01T06:53:47.408Z,10.2
2018-01-01T06:54:27.970Z,10.23
2018-01-01T06:55:08.534Z,10.25
2018-01-01T06:55:49.096Z,10.2
2018-01-01T06:56:29.658Z,10.22
2018-01-01T06:57:10.217Z,10.23
2018-01-01T06:57:50.788Z,10.23
2018-01-01T06:58:31.351Z,10.22
2018-01-01T06:59:11.914Z,10.2
2018-01-01T06:59:52.475Z,10.23
2018-01-01T07:00:33.050Z,10.2
2018-01-01T07:01:13.610Z,10.15
2018-01-01T07:01:54.183Z,10.25
2018-01-01T07:02:34.749Z,10.12
2018-01-01T07:03:15.310Z,10.13
2018-01-01T07:03:55.858Z,10.19
2018-01-01T07:04:36.415Z,10.15
2018-01-01T07:05:16.979Z,10.16
2018-01-01T07:05:57.575Z,10.19
2018-01-01T07:06:38.152Z,10.17
2018-01-01T07:07:18.726Z,10.16
2018-01-01T07:07:59.284Z,10.16
2018-01-01T07:08:39.854Z,10.16
2018-01-01T07:09:20.424Z,10.2
2018-01-01T07:10:00.985Z,10.09
2018-01-01T07:10:41.558Z,10.16
2018-01-01T07:11:22.131Z,10.15
2018-01-01T07:12:02.704Z,10.2
2018-01-01T07:12:43.316Z,10.19
2018-01-01T07:13:23.887Z,10.2
2018-01-01T07:14:04.440Z,10.09
2018-01-01T07:14:45.008Z,10.09
2018-01-01T07:15:25.563Z,10.2
2018-01-01T07:16:06.126Z,10.17
2018-01-01T07:16:46.709Z,10.23
2018-01-01T07:17:27.283Z,10.23
2018-01-01T07:18:07.853Z,10.15
2018-01-01T07:18:48.401Z,10.19
2018-01-01T07:19:28.971Z,10.19
2018-01-01T07:20:09.537Z,10.2
2018-01-01T07:20:50.091Z,10.12
2018-01-01T07:21:30.661Z,10.13
2018-01-01T07:22:11.238Z,10.07
2018-01-01T07:22:52.647Z,10.1
2018-01-01T07:23:33.224Z,10.12
2018-01-01T07:24:13.793Z,10.07
2018-01-01T07:24:54.363Z,10.07
2018-01-01T07:25:34.920Z,10.05
2018-01-01T07:26:15.492Z,10.07
2018-01-01T07:26:56.059Z,10.1
2018-01-01T07:27:36.644Z,10.09
2018-01-01T07:28:17.200Z,10.07
2018-01-01T07:28:57.778Z,10.07
2018-01-01T07:29:38.340Z,10.12
2018-01-01T07:30:18.908Z,10.09
2018-01-01T07:30:59.483Z,10.12
2018-01-01T07:31:40.044Z,10.1
2018-01-01T07:32:20.622Z,10.07
2018-01-01T07:33:01.175Z,10.13
2018-01-01T07:33:41.735Z,10.1
2018-01-01T07:34:22.299Z,10.07
2018-01-01T07:35:02.866Z,10.07
2018-01-01T07:35:43.419Z,10.13
2018-01-01T07:36:23.977Z,10.04
2018-01-01T07:37:04.548Z,10.05
2018-01-01T07:37:45.111Z,10.1
2018-01-01T07:38:25.661Z,10.09
2018-01-01T07:39:06.281Z,10.09
2018-01-01T07:39:46.782Z,10.01
2018-01-01T07:40:27.334Z,10.01
2018-01-01T07:41:07.902Z,10.02
2018-01-01T07:41:48.517Z,9.99
2018-01-01T07:42:29.036Z,9.98
2018-01-01T07:43:09.600Z,9.99
2018-01-01T07:43:50.164Z,10.05
2018-01-01T07:44:30.726Z,10.02
2018-01-01T07:45:11.284Z,10.04
2018-01-01T07:45:51.855Z,10.09
2018-01-01T07:46:32.414Z,10.01
2018-01-01T07:47:12.981Z,9.97
2018-01-01T07:47:53.546Z,10.01
2018-01-01T07:48:34.111Z,10.02
2018-01-01T07:49:14.678Z,10.05
2018-01-01T07:49:55.241Z,10.05
2018-01-01T07:50:35.793Z,9.95
2018-01-01T07:51:16.356Z,9.99
2018-01-01T07:51:56.921Z,9.94
2018-01-01T07:52:37.483Z,10.04
2018-01-01T07:53:18.045Z,9.95
2018-01-01T07:53:58.607Z,9.94
2018-01-01T07:54:39.165Z,9.99
2018-01-01T07:55:19.731Z,9.94
2018-01-01T07:56:00.290Z,9.99
2018-01-01T07:56:40.866Z,10.01
2018-01-01T07:57:21.422Z,9.91
2018-01-01T07:58:01.985Z,9.94
2018-01-01T07:58:42.558Z,9.92
2018-01-01T07:59:23.127Z,9.97
2018-01-01T08:00:03.743Z,9.92
2018-01-01T08:00:44.267Z,9.92
2018-01-01T08:01:24.837Z,9.97
2018-01-01T08:02:05.460Z,9.95
2018-01-01T08:02:46.034Z,9.91
2018-01-01T08:03:26.601Z,9.98
2018-01-01T08:04:07.161Z,9.91
2018-01-01T08:04:47.776Z,9.98
2018-01-01T08:05:28.318Z,9.95
2018-01-01T08:06:08.907Z,9.98
2018-01-01T08:06:49.494Z,10.01
2018-01-01T08:07:30.075Z,9.99
2018-01-01T08:08:10.658Z,10.02
2018-01-01T08:08:51.250Z,9.98
2018-01-01T08:09:31.818Z,10.04
2018-01-01T08:10:12.399Z,9.99
2018-01-01T08:10:52.960Z,9.94
2018-01-01T08:11:33.521Z,10.02
2018-01-01T08:12:14.135Z,9.95
2018-01-01T08:12:54.703Z,10.01
2018-01-01T08:13:35.269Z,9.95
2018-01-01T08:14:15.821Z,9.95
2018-01-01T08:14:56.398Z,9.95
2018-01-01T08:15:36.956Z,9.94
2018-01-01T08:16:17.511Z,9.94
2018-01-01T08:16:58.074Z,9.99
2018-01-01T08:17:38.650Z,9.98
2018-01-01T08:18:19.213Z,9.97
2018-01-01T08:18:59.803Z,9.95
2018-01-01T08:19:40.381Z,9.82
2018-01-01T08:20:20.944Z,9.82
2018-01-01T08:21:01.508Z,9.86
2018-01-01T08:21:42.063Z,9.8
2018-01-01T08:22:22.638Z,9.87
2018-01-01T08:23:03.200Z,9.83
2018-01-01T08:23:43.785Z,9.82
2018-01-01T08:24:24.352Z,9.84
2018-01-01T08:25:04.915Z,9.84
2018-01-01T08:25:45.469Z,9.79
2018-01-01T08:26:26.038Z,9.73
2018-01-01T08:27:06.604Z,9.82
2018-01-01T08:27:47.169Z,9.8
2018-01-01T08:28:27.737Z,9.82
2018-01-01T08:29:08.309Z,9.82
2018-01-01T08:29:48.919Z,9.86
2018-01-01T08:30:29.498Z,9.74
2018-01-01T08:31:10.087Z,9.76
2018-01-01T08:31:50.676Z,9.77
2018-01-01T08:32:31.243Z,9.73
2018-01-01T08:33:11.808Z,9.74
2018-01-01T08:33:52.369Z,9.74
2018-01-01T08:34:32.923Z,9.73
2018-01-01T08:35:13.494Z,9.74
2018-01-01T08:35:54.061Z,9.74
2018-01-01T08:36:34.627Z,9.73
2018-01-01T08:37:15.185Z,9.73
2018-01-01T08:37:55.748Z,9.74
2018-01-01T08:38:36.312Z,9.72
2018-01-01T08:39:16.868Z,9.73
2018-01-01T08:39:57.429Z,9.73
2018-01-01T08:40:38.038Z,9.65
2018-01-01T08:41:18.606Z,9.68
2018-01-01T08:41:59.174Z,9.65
2018-01-01T08:42:39.743Z,9.72
2018-01-01T08:43:20.338Z,9.69
2018-01-01T08:44:00.900Z,9.72
2018-01-01T08:44:41.456Z,9.68
2018-01-01T08:45:22.016Z,9.65
2018-01-01T08:46:02.596Z,9.76
2018-01-01T08:46:43.186Z,9.68